Impacts METAR Board
IDs:

KCFD - Bryan/Coulter Fld, TX, US

Updated at: 0100 UTC 31 May 2020
Potential Impact None Slight Moderate High
Time 30/13Z 30/14Z 30/15Z 30/16Z 30/17Z 30/18Z 30/19Z 30/20Z 30/21Z 30/22Z 30/23Z 31/00Z 31/01Z
Temp71 76 80 83 83 85 86 86 86 85 85 83 80
Dewpt65 66 68 68 67 66 66 65 64 66 66 67 68
Altim30.13 30.14 30.15 30.13 30.13 30.11 30.09 30.07 30.06 30.05 30.03 30.03 30.05
VIS10 10 10 10 10 10 10 10 10 10 10 10 10
CIG-- -- -- -- -- -- -- -- -- -- -- -- --
CoverCLRCLRCLRCLRSCTCLRSCTCLRSCTCLRCLRCLRCLR
FltCatVFRVFRVFRVFRVFRVFRVFRVFRVFRVFRVFRVFRVFR
WX--------------------------
WDir30507070404070702030201020
WSpd4 4 3 8 5 7 6 5 4 5 6 5 3
WGst-- -- -- -- -- -- -- -- -- -- -- -- --
Raw hourly METARs
KCFD 301255Z AUTO 03004KT 10SM CLR 21/18 A3013 RMK AO2 T02140181
KCFD 301355Z AUTO 05004KT 10SM CLR 25/19 A3014 RMK AO2 T02450188
KCFD 301455Z AUTO 07003KT 10SM CLR 27/20 A3015 RMK AO2 T02660200
KCFD 301555Z AUTO 07008KT 10SM CLR 28/20 A3013 RMK AO2 T02810200
KCFD 301655Z AUTO 04005KT 10SM SCT035 28/20 A3013 RMK AO2 T02810195
KCFD 301755Z AUTO 04007KT 10SM CLR 30/19 A3011 RMK AO2 T02960190 10296 20192
KCFD 301855Z AUTO 07006KT 10SM SCT047 SCT050 30/19 A3009 RMK AO2 T02980189
KCFD 301955Z AUTO 07005KT 10SM CLR 30/19 A3007 RMK AO2 T03020186
KCFD 302055Z AUTO 02004KT 10SM SCT055 30/18 A3006 RMK AO2 T03000179
KCFD 302155Z AUTO 03005KT 10SM CLR 29/19 A3005 RMK AO2 T02920187
KCFD 302255Z AUTO 02006KT 10SM CLR 30/19 A3003 RMK AO2 T02970189
KCFD 302355Z AUTO 01005KT 10SM CLR 28/19 A3003 RMK AO2 T02840192 10304 20284
KCFD 310055Z AUTO 02003KT 10SM CLR 27/20 A3005 RMK AO2 T02670200



Page loaded:  01:08 UTC  |   06:08 PM Pacific  |   07:08 PM Mountain  |   08:08 PM Central  |   09:08 PM Eastern

 

ADVISORIES

FORECASTS

FORECASTS

OBSERVATIONS

USER TOOLS

ABOUT US